createdAt,value
2022-11-02T00:00:13.541Z,999.52
2022-11-02T00:01:13.567Z,999.52
2022-11-02T00:02:13.564Z,999.55
2022-11-02T00:03:14.271Z,999.49
2022-11-02T00:04:13.210Z,999.44
2022-11-02T00:05:18.206Z,999.52
2022-11-02T00:06:13.561Z,999.51
2022-11-02T00:07:13.745Z,999.48
2022-11-02T00:08:13.695Z,999.41
2022-11-02T00:09:13.626Z,999.45
2022-11-02T00:10:13.829Z,999.42
2022-11-02T00:11:14.087Z,999.36
2022-11-02T00:12:13.233Z,999.34
2022-11-02T00:13:13.429Z,999.37
2022-11-02T00:14:13.226Z,999.35
2022-11-02T00:15:13.383Z,999.35
2022-11-02T00:16:13.287Z,999.29
2022-11-02T00:17:13.226Z,999.23
2022-11-02T00:18:13.446Z,999.25
2022-11-02T00:19:13.286Z,999.22
2022-11-02T00:20:13.372Z,999.26
2022-11-02T00:21:13.828Z,999.29
2022-11-02T00:22:14.199Z,999.31
2022-11-02T00:23:13.478Z,999.33
2022-11-02T00:24:13.478Z,999.22
2022-11-02T00:25:13.775Z,999.28
2022-11-02T00:26:13.881Z,999.24
2022-11-02T00:27:14.053Z,999.24
2022-11-02T00:28:13.137Z,999.23
2022-11-02T00:29:13.208Z,999.20
2022-11-02T00:30:13.217Z,999.17
2022-11-02T00:31:13.168Z,999.13
2022-11-02T00:32:13.554Z,999.11
2022-11-02T00:33:13.926Z,999.10
2022-11-02T00:34:12.802Z,999.12
2022-11-02T00:35:13.713Z,999.18
2022-11-02T00:36:13.619Z,999.22
2022-11-02T00:37:13.762Z,999.19
2022-11-02T00:38:13.678Z,999.14
2022-11-02T00:39:13.642Z,999.07
2022-11-02T00:40:13.860Z,999.09
2022-11-02T00:41:14.085Z,999.13
2022-11-02T00:42:12.973Z,999.18
2022-11-02T00:43:14.230Z,999.17
2022-11-02T00:44:13.191Z,999.14
2022-11-02T00:45:13.122Z,999.23
2022-11-02T00:46:13.650Z,999.21
2022-11-02T00:47:14.263Z,999.23
2022-11-02T00:48:13.597Z,999.17
2022-11-02T00:49:13.626Z,999.24
2022-11-02T00:50:13.794Z,999.29
2022-11-02T00:51:14.138Z,999.25
2022-11-02T00:52:13.328Z,999.33
2022-11-02T00:53:13.394Z,999.24
2022-11-02T00:54:13.460Z,999.16
2022-11-02T00:55:13.365Z,999.18
2022-11-02T00:56:13.304Z,999.22
2022-11-02T00:57:13.250Z,999.27
2022-11-02T00:58:13.250Z,999.23
2022-11-02T00:59:13.381Z,999.30
2022-11-02T01:00:13.258Z,999.21
2022-11-02T01:01:13.191Z,999.17
2022-11-02T01:02:13.764Z,999.20
2022-11-02T01:03:13.035Z,999.15
2022-11-02T01:04:13.154Z,999.17
2022-11-02T01:05:13.125Z,999.13
2022-11-02T01:06:13.153Z,999.17
2022-11-02T01:07:13.059Z,999.13
2022-11-02T01:08:13.373Z,999.16
2022-11-02T01:09:13.299Z,999.20
2022-11-02T01:10:13.311Z,999.21
2022-11-02T01:11:13.283Z,999.12
2022-11-02T01:12:13.144Z,999.20
2022-11-02T01:13:13.097Z,999.15
2022-11-02T01:14:13.257Z,999.12
2022-11-02T01:15:13.173Z,999.20
2022-11-02T01:16:13.321Z,999.22
2022-11-02T01:17:13.490Z,999.11
2022-11-02T01:18:13.488Z,999.20
2022-11-02T01:19:13.788Z,999.17
2022-11-02T01:20:13.604Z,999.25
2022-11-02T01:21:13.455Z,999.16
2022-11-02T01:22:13.482Z,999.16
2022-11-02T01:23:13.405Z,999.19
2022-11-02T01:24:13.401Z,999.15
2022-11-02T01:25:13.306Z,999.18
2022-11-02T01:26:13.334Z,999.05
2022-11-02T01:27:13.545Z,999.12
2022-11-02T01:28:13.501Z,999.14
2022-11-02T01:29:13.973Z,999.10
2022-11-02T01:30:12.814Z,999.07
2022-11-02T01:31:13.771Z,999.05
2022-11-02T01:32:13.926Z,999.06
2022-11-02T01:33:13.037Z,999.01
2022-11-02T01:34:13.000Z,999.10
2022-11-02T01:35:13.158Z,999.08
2022-11-02T01:36:13.315Z,999.16
2022-11-02T01:37:13.218Z,999.19
2022-11-02T01:38:13.342Z,999.19
2022-11-02T01:39:13.375Z,999.16
2022-11-02T01:40:13.307Z,999.19
2022-11-02T01:41:13.154Z,999.19
2022-11-02T01:42:12.950Z,999.15
2022-11-02T01:43:12.782Z,999.15
2022-11-02T01:44:13.833Z,999.20
2022-11-02T01:45:13.801Z,999.16
2022-11-02T01:46:13.957Z,999.07
2022-11-02T01:47:12.823Z,999.17
2022-11-02T01:48:13.765Z,999.16
2022-11-02T01:49:13.676Z,999.15
2022-11-02T01:50:13.717Z,999.20
2022-11-02T01:51:13.555Z,999.12
2022-11-02T01:52:13.575Z,999.13
2022-11-02T01:53:13.711Z,999.09
2022-11-02T01:54:13.870Z,999.08
2022-11-02T01:55:13.069Z,999.15
2022-11-02T01:56:13.628Z,999.11
2022-11-02T01:57:13.906Z,999.06
2022-11-02T01:58:12.852Z,999.09
2022-11-02T01:59:14.156Z,999.10
2022-11-02T02:00:13.385Z,999.11
2022-11-02T02:01:13.668Z,999.10
2022-11-02T02:02:14.120Z,999.12
2022-11-02T02:03:13.194Z,999.06
2022-11-02T02:04:13.340Z,998.98
2022-11-02T02:05:13.196Z,999.08
2022-11-02T02:06:13.201Z,999.04
2022-11-02T02:07:13.148Z,999.07
2022-11-02T02:08:13.199Z,999.11
2022-11-02T02:09:13.428Z,999.02
2022-11-02T02:10:13.628Z,999.07
2022-11-02T02:11:13.439Z,999.07
2022-11-02T02:12:13.626Z,999.15
2022-11-02T02:13:13.735Z,999.10
2022-11-02T02:14:13.579Z,999.15
2022-11-02T02:15:13.619Z,999.11
2022-11-02T02:16:13.556Z,999.16
2022-11-02T02:17:13.649Z,999.14
2022-11-02T02:18:13.973Z,999.12
2022-11-02T02:19:12.884Z,999.12
2022-11-02T02:20:14.064Z,999.04
2022-11-02T02:21:12.952Z,999.09
2022-11-02T02:22:12.954Z,999.08
2022-11-02T02:23:12.865Z,999.05
2022-11-02T02:24:14.072Z,999.01
2022-11-02T02:25:13.106Z,999.05
2022-11-02T02:26:13.204Z,999.01
2022-11-02T02:27:13.413Z,999.07
2022-11-02T02:28:13.596Z,999.07
2022-11-02T02:29:13.541Z,999.07
2022-11-02T02:30:13.570Z,999.07
2022-11-02T02:31:13.473Z,999.13
2022-11-02T02:32:13.316Z,999.11
2022-11-02T02:33:13.516Z,999.06
2022-11-02T02:34:13.559Z,999.10
2022-11-02T02:35:13.718Z,999.05
2022-11-02T02:36:13.623Z,999.09
2022-11-02T02:37:13.590Z,999.13
2022-11-02T02:38:13.922Z,999.11
2022-11-02T02:39:12.853Z,999.12
2022-11-02T02:40:13.781Z,999.09
2022-11-02T02:41:13.882Z,999.11
2022-11-02T02:42:13.867Z,999.09
2022-11-02T02:43:14.099Z,999.02
2022-11-02T02:44:13.025Z,999.07
2022-11-02T02:45:12.883Z,999.06
2022-11-02T02:46:14.041Z,999.03
2022-11-02T02:47:12.958Z,999.00
2022-11-02T02:48:13.032Z,998.93
2022-11-02T02:49:12.882Z,999.03
2022-11-02T02:50:13.624Z,999.04
2022-11-02T02:51:13.910Z,999.00
2022-11-02T02:52:13.269Z,999.07
2022-11-02T02:53:13.144Z,999.04
2022-11-02T02:54:13.323Z,999.14
2022-11-02T02:55:14.827Z,999.07
2022-11-02T02:56:14.189Z,999.08
2022-11-02T02:57:13.266Z,999.02
2022-11-02T02:58:13.301Z,999.15
2022-11-02T02:59:13.162Z,999.13
2022-11-02T03:00:13.337Z,999.17
2022-11-02T03:01:13.480Z,999.16
2022-11-02T03:02:13.531Z,999.11
2022-11-02T03:03:13.977Z,999.15
2022-11-02T03:04:12.907Z,999.16
2022-11-02T03:05:12.876Z,999.15
2022-11-02T03:06:13.928Z,999.19
2022-11-02T03:07:12.996Z,999.21
2022-11-02T03:08:12.889Z,999.17
2022-11-02T03:09:13.408Z,999.13
2022-11-02T03:10:13.463Z,999.05
2022-11-02T03:11:13.547Z,999.08
2022-11-02T03:12:13.422Z,999.03
2022-11-02T03:13:13.245Z,999.06
2022-11-02T03:14:13.592Z,999.03
2022-11-02T03:15:13.591Z,999.05
2022-11-02T03:16:13.504Z,999.07
2022-11-02T03:17:13.360Z,999.02
2022-11-02T03:18:13.227Z,999.07
2022-11-02T03:19:13.091Z,999.07
2022-11-02T03:20:13.208Z,999.08
2022-11-02T03:21:13.166Z,999.08
2022-11-02T03:22:13.293Z,999.04
2022-11-02T03:23:13.211Z,999.11
2022-11-02T03:24:13.262Z,999.13
2022-11-02T03:25:13.082Z,999.14
2022-11-02T03:26:13.283Z,999.17
2022-11-02T03:27:13.422Z,999.16
2022-11-02T03:28:13.432Z,999.18
2022-11-02T03:29:13.723Z,999.15
2022-11-02T03:30:13.565Z,999.20
2022-11-02T03:31:13.775Z,999.23
2022-11-02T03:32:13.878Z,999.19
2022-11-02T03:33:13.704Z,999.27
2022-11-02T03:34:14.039Z,999.32
2022-11-02T03:35:12.989Z,999.32
2022-11-02T03:36:13.035Z,999.29
2022-11-02T03:37:13.085Z,999.34
2022-11-02T03:38:13.390Z,999.32
2022-11-02T03:39:13.323Z,999.25
2022-11-02T03:40:13.806Z,999.30
2022-11-02T03:41:13.799Z,999.34
2022-11-02T03:42:13.720Z,999.42
2022-11-02T03:43:13.853Z,999.39
2022-11-02T03:44:13.738Z,999.39
2022-11-02T03:45:13.683Z,999.32
2022-11-02T03:46:13.480Z,999.38
2022-11-02T03:47:13.823Z,999.44
2022-11-02T03:48:14.103Z,999.31
2022-11-02T03:49:12.984Z,999.43
2022-11-02T03:50:12.872Z,999.46
2022-11-02T03:51:13.933Z,999.37
2022-11-02T03:52:12.868Z,999.50
2022-11-02T03:53:13.781Z,999.54
2022-11-02T03:54:13.812Z,999.52
2022-11-02T03:55:13.933Z,999.46
2022-11-02T03:56:13.126Z,999.58
2022-11-02T03:57:13.052Z,999.56
2022-11-02T03:58:13.355Z,999.61
2022-11-02T03:59:13.228Z,999.54
2022-11-02T04:00:13.078Z,999.56
2022-11-02T04:01:13.174Z,999.59
2022-11-02T04:02:13.185Z,999.52
2022-11-02T04:03:18.311Z,999.55
2022-11-02T04:04:13.946Z,999.50
2022-11-02T04:05:12.945Z,999.64
2022-11-02T04:06:12.903Z,999.57
2022-11-02T04:07:13.214Z,999.58
2022-11-02T04:08:13.569Z,999.61
2022-11-02T04:09:13.469Z,999.61
2022-11-02T04:10:13.717Z,999.64
2022-11-02T04:11:13.608Z,999.67
2022-11-02T04:12:13.719Z,999.66
2022-11-02T04:13:13.734Z,999.68
2022-11-02T04:14:13.696Z,999.77
2022-11-02T04:15:13.898Z,999.73
2022-11-02T04:16:12.829Z,999.75
2022-11-02T04:17:13.705Z,999.71
2022-11-02T04:18:13.600Z,999.74
2022-11-02T04:19:13.497Z,999.69
2022-11-02T04:20:13.407Z,999.74
2022-11-02T04:21:13.540Z,999.73
2022-11-02T04:22:13.353Z,999.76
2022-11-02T04:23:13.349Z,999.80
2022-11-02T04:24:13.161Z,999.79
2022-11-02T04:25:13.609Z,999.73
2022-11-02T04:26:13.532Z,999.76
2022-11-02T04:27:16.754Z,999.79
2022-11-02T04:28:13.715Z,999.80
2022-11-02T04:29:13.570Z,999.74
2022-11-02T04:30:13.547Z,999.75
2022-11-02T04:31:13.425Z,999.83
2022-11-02T04:32:13.538Z,999.81
2022-11-02T04:33:13.715Z,999.79
2022-11-02T04:34:13.719Z,999.84
2022-11-02T04:35:13.569Z,999.89
2022-11-02T04:36:13.514Z,999.88
2022-11-02T04:37:13.621Z,999.93
2022-11-02T04:38:13.564Z,999.88
2022-11-02T04:39:13.560Z,999.88
2022-11-02T04:40:13.494Z,999.94
2022-11-02T04:41:13.843Z,999.90
2022-11-02T04:42:14.411Z,999.92
2022-11-02T04:43:13.493Z,999.85
2022-11-02T04:44:13.371Z,999.89
2022-11-02T04:45:13.369Z,999.85
2022-11-02T04:46:13.813Z,999.83
2022-11-02T04:47:13.750Z,999.84
2022-11-02T04:48:13.738Z,999.78
2022-11-02T04:49:13.804Z,999.97
2022-11-02T04:50:13.755Z,999.88
2022-11-02T04:51:13.652Z,999.94
2022-11-02T04:52:13.724Z,999.97
2022-11-02T04:53:13.908Z,1000.00
2022-11-02T04:54:12.830Z,1000.03
2022-11-02T04:55:13.664Z,1000.07
2022-11-02T04:56:13.858Z,1000.05
2022-11-02T04:57:14.251Z,1000.06
2022-11-02T04:58:13.589Z,1000.07
2022-11-02T04:59:13.450Z,1000.12
2022-11-02T05:00:13.399Z,1000.08
2022-11-02T05:01:14.497Z,1000.04
2022-11-02T05:02:13.447Z,1000.01
2022-11-02T05:03:13.882Z,1000.04
2022-11-02T05:04:13.766Z,1000.14
2022-11-02T05:05:14.128Z,1000.13
2022-11-02T05:06:13.405Z,1000.12
2022-11-02T05:07:13.378Z,1000.02
2022-11-02T05:08:13.553Z,1000.08
2022-11-02T05:09:13.691Z,1000.08
2022-11-02T05:10:14.006Z,1000.13
2022-11-02T05:11:13.007Z,1000.17
2022-11-02T05:12:12.994Z,1000.07
2022-11-02T05:13:13.169Z,1000.16
2022-11-02T05:14:13.069Z,1000.19
2022-11-02T05:15:13.137Z,1000.14
2022-11-02T05:16:13.027Z,1000.13
2022-11-02T05:17:13.253Z,1000.19
2022-11-02T05:18:18.460Z,1000.27
2022-11-02T05:19:13.082Z,1000.23
2022-11-02T05:20:12.958Z,1000.33
2022-11-02T05:21:12.877Z,1000.35
2022-11-02T05:22:13.987Z,1000.29
2022-11-02T05:23:12.915Z,1000.33
2022-11-02T05:24:12.823Z,1000.31
2022-11-02T05:25:14.259Z,1000.32
2022-11-02T05:26:13.609Z,1000.41
2022-11-02T05:27:13.678Z,1000.31
2022-11-02T05:28:13.576Z,1000.34
2022-11-02T05:29:13.714Z,1000.27
2022-11-02T05:30:13.560Z,1000.29
2022-11-02T05:31:13.593Z,1000.31
2022-11-02T05:32:13.509Z,1000.43
2022-11-02T05:33:13.389Z,1000.30
2022-11-02T05:34:13.343Z,1000.37
2022-11-02T05:35:13.424Z,1000.23
2022-11-02T05:36:13.401Z,1000.32
2022-11-02T05:37:13.515Z,1000.33
2022-11-02T05:38:13.465Z,1000.21
2022-11-02T05:39:14.288Z,1000.34
2022-11-02T05:40:13.237Z,1000.23
2022-11-02T05:41:13.231Z,1000.39
2022-11-02T05:42:13.281Z,1000.35
2022-11-02T05:43:13.480Z,1000.41
2022-11-02T05:44:13.402Z,1000.39
2022-11-02T05:45:13.313Z,1000.45
2022-11-02T05:46:13.477Z,1000.44
2022-11-02T05:47:14.149Z,1000.38
2022-11-02T05:48:13.650Z,1000.49
2022-11-02T05:49:13.850Z,1000.51
2022-11-02T05:50:13.745Z,1000.56
2022-11-02T05:51:13.905Z,1000.39
2022-11-02T05:52:12.977Z,1000.50
2022-11-02T05:53:12.928Z,1000.45
2022-11-02T05:54:13.305Z,1000.53
2022-11-02T05:55:13.592Z,1000.55
2022-11-02T05:56:13.624Z,1000.57
2022-11-02T05:57:13.750Z,1000.40
2022-11-02T05:58:14.042Z,1000.52
2022-11-02T05:59:12.958Z,1000.48
2022-11-02T06:00:12.953Z,1000.52
2022-11-02T06:01:13.184Z,1000.53
2022-11-02T06:02:13.498Z,1000.55
2022-11-02T06:03:13.416Z,1000.58
2022-11-02T06:04:13.400Z,1000.58
2022-11-02T06:05:13.392Z,1000.55
2022-11-02T06:06:13.394Z,1000.66
2022-11-02T06:07:13.458Z,1000.67
2022-11-02T06:08:18.728Z,1000.61
2022-11-02T06:09:13.759Z,1000.65
2022-11-02T06:10:13.667Z,1000.69
2022-11-02T06:11:13.975Z,1000.76
2022-11-02T06:12:12.818Z,1000.67
2022-11-02T06:13:13.815Z,1000.72
2022-11-02T06:14:14.127Z,1000.66
2022-11-02T06:15:13.017Z,1000.76
2022-11-02T06:16:13.219Z,1000.79
2022-11-02T06:17:13.435Z,1000.74
2022-11-02T06:18:13.536Z,1000.82
2022-11-02T06:20:12.771Z,1000.72
2022-11-02T06:21:13.890Z,1000.83
2022-11-02T06:22:12.824Z,1000.84
2022-11-02T06:23:13.841Z,1000.89
2022-11-02T06:24:13.794Z,1001.08
2022-11-02T06:25:13.711Z,1000.94
2022-11-02T06:26:14.310Z,1000.98
2022-11-02T06:27:13.374Z,1000.99
2022-11-02T06:28:13.714Z,1000.93
2022-11-02T06:29:13.928Z,1000.95
2022-11-02T06:30:12.985Z,1000.87
2022-11-02T06:31:12.939Z,1000.92
2022-11-02T06:32:12.924Z,1000.85
2022-11-02T06:33:13.532Z,1000.97
2022-11-02T06:34:14.334Z,1000.97
2022-11-02T06:35:13.244Z,1001.05
2022-11-02T06:36:13.497Z,1001.02
2022-11-02T06:37:13.405Z,1001.01
2022-11-02T06:38:13.484Z,1001.02
2022-11-02T06:39:13.381Z,1000.95
2022-11-02T06:40:13.491Z,1001.02
2022-11-02T06:41:13.493Z,1001.07
2022-11-02T06:42:13.591Z,1001.13
2022-11-02T06:43:17.643Z,1001.11
2022-11-02T06:44:12.992Z,1001.11
2022-11-02T06:45:12.869Z,1001.21
2022-11-02T06:46:13.940Z,1001.20
2022-11-02T06:47:12.865Z,1001.29
2022-11-02T06:48:13.787Z,1001.27
2022-11-02T06:49:13.967Z,1001.28
2022-11-02T06:50:12.940Z,1001.44
2022-11-02T06:51:12.995Z,1001.46
2022-11-02T06:52:13.430Z,1001.42
2022-11-02T06:53:13.328Z,1001.47
2022-11-02T06:54:13.666Z,1001.46
2022-11-02T06:55:13.606Z,1001.50
2022-11-02T06:56:13.862Z,1001.55
2022-11-02T06:57:14.017Z,1001.60
2022-11-02T06:58:12.924Z,1001.61
2022-11-02T06:59:12.883Z,1001.66
2022-11-02T07:00:15.583Z,1001.74
2022-11-02T07:01:23.475Z,1001.67
2022-11-02T07:02:13.697Z,1001.70
2022-11-02T07:03:13.587Z,1001.69
2022-11-02T07:04:13.637Z,1001.67
2022-11-02T07:05:13.939Z,1001.80
2022-11-02T07:06:14.506Z,1001.69
2022-11-02T07:07:13.706Z,1001.80
2022-11-02T07:08:13.812Z,1001.74
2022-11-02T07:09:14.068Z,1001.86
2022-11-02T07:10:13.196Z,1001.82
2022-11-02T07:11:13.068Z,1001.84
2022-11-02T07:13:13.492Z,1001.87
2022-11-02T07:14:13.449Z,1001.97
2022-11-02T07:15:13.542Z,1001.90
2022-11-02T07:16:33.022Z,1002.00
2022-11-02T07:17:12.994Z,1002.03
2022-11-02T07:18:12.929Z,1001.94
2022-11-02T07:19:13.254Z,1001.99
2022-11-02T07:20:13.196Z,1002.08
2022-11-02T07:21:13.688Z,1002.03
2022-11-02T07:22:13.684Z,1002.01
2022-11-02T07:23:13.703Z,1002.16
2022-11-02T07:24:13.644Z,1002.22
2022-11-02T07:25:13.474Z,1002.12
2022-11-02T07:26:14.562Z,1002.21
2022-11-02T07:27:13.822Z,1002.14
2022-11-02T07:28:13.933Z,1002.18
2022-11-02T07:29:36.375Z,1002.19
2022-11-02T07:30:13.341Z,1002.20
2022-11-02T07:31:13.541Z,1002.21
2022-11-02T07:32:13.592Z,1002.18
2022-11-02T07:33:13.506Z,1002.20
2022-11-02T07:34:16.908Z,1002.29
2022-11-02T07:35:13.196Z,1002.25
2022-11-02T07:36:13.111Z,1002.29
2022-11-02T07:37:13.423Z,1002.30
2022-11-02T07:38:13.705Z,1002.36
2022-11-02T07:39:13.759Z,1002.36
2022-11-02T07:40:13.682Z,1002.42
2022-11-02T07:41:13.591Z,1002.43
2022-11-02T07:42:13.365Z,1002.40
2022-11-02T07:43:13.328Z,1002.46
2022-11-02T07:44:13.262Z,1002.43
2022-11-02T07:45:13.160Z,1002.50
2022-11-02T07:46:13.155Z,1002.37
2022-11-02T07:47:13.362Z,1002.42
2022-11-02T07:48:13.406Z,1002.59
2022-11-02T07:49:17.318Z,1002.48
2022-11-02T07:50:13.137Z,1002.53
2022-11-02T07:51:13.185Z,1002.52
2022-11-02T07:52:13.315Z,1002.55
2022-11-02T07:53:13.557Z,1002.57
2022-11-02T07:54:13.717Z,1002.54
2022-11-02T07:55:13.593Z,1002.45
2022-11-02T07:56:13.744Z,1002.57
2022-11-02T07:57:13.680Z,1002.67
2022-11-02T07:58:13.711Z,1002.59
2022-11-02T07:59:13.689Z,1002.61
2022-11-02T08:00:13.618Z,1002.71
2022-11-02T08:01:13.959Z,1002.71
2022-11-02T08:02:30.833Z,1002.72
2022-11-02T08:03:13.000Z,1002.70
2022-11-02T08:04:13.032Z,1002.61
2022-11-02T08:05:12.952Z,1002.78
2022-11-02T08:06:13.052Z,1002.77
2022-11-02T08:07:13.014Z,1002.79
2022-11-02T08:08:13.839Z,1002.82
2022-11-02T08:09:13.992Z,1002.85
2022-11-02T08:10:12.989Z,1002.87
2022-11-02T08:11:12.845Z,1002.88
2022-11-02T08:12:13.747Z,1002.83
2022-11-02T08:13:13.893Z,1002.94
2022-11-02T08:14:12.897Z,1002.87
2022-11-02T08:15:12.731Z,1002.89
2022-11-02T08:16:13.865Z,1002.88
2022-11-02T08:17:14.315Z,1002.98
2022-11-02T08:18:13.501Z,1002.94
2022-11-02T08:19:13.506Z,1002.98
2022-11-02T08:20:13.505Z,1002.94
2022-11-02T08:21:13.662Z,1002.98
2022-11-02T08:22:13.775Z,1002.98
2022-11-02T08:23:13.885Z,1003.00
2022-11-02T08:24:13.995Z,1003.03
2022-11-02T08:25:13.163Z,1003.02
2022-11-02T08:26:13.296Z,1003.02
2022-11-02T08:27:13.254Z,1003.05
2022-11-02T08:28:13.329Z,1003.02
2022-11-02T08:29:13.265Z,1003.09
2022-11-02T08:30:13.403Z,1003.13
2022-11-02T08:31:13.804Z,1003.02
2022-11-02T08:32:14.063Z,1003.06
2022-11-02T08:33:13.239Z,1003.19
2022-11-02T08:34:13.424Z,1003.07
2022-11-02T08:35:13.341Z,1003.12
2022-11-02T08:36:13.266Z,1003.14
2022-11-02T08:37:13.514Z,1003.11
2022-11-02T08:38:13.417Z,1003.20
2022-11-02T08:39:18.461Z,1003.17
2022-11-02T08:40:12.911Z,1003.22
2022-11-02T08:41:13.130Z,1003.25
2022-11-02T08:42:13.054Z,1003.28
2022-11-02T08:43:13.189Z,1003.18
2022-11-02T08:44:13.069Z,1003.31
2022-11-02T08:45:12.928Z,1003.31
2022-11-02T08:46:15.359Z,1003.31
2022-11-02T08:47:13.395Z,1003.23
2022-11-02T08:48:13.587Z,1003.26
2022-11-02T08:49:13.878Z,1003.32
2022-11-02T08:50:12.878Z,1003.31
2022-11-02T08:51:14.176Z,1003.28
2022-11-02T08:52:13.388Z,1003.31
2022-11-02T08:53:13.243Z,1003.34
2022-11-02T08:54:18.274Z,1003.45
2022-11-02T08:55:13.266Z,1003.33
2022-11-02T08:56:13.659Z,1003.35
2022-11-02T08:57:13.938Z,1003.38
2022-11-02T08:58:18.128Z,1003.39
2022-11-02T08:59:13.283Z,1003.43
2022-11-02T09:00:13.554Z,1003.48
2022-11-02T09:01:13.733Z,1003.57
2022-11-02T09:02:14.072Z,1003.42
2022-11-02T09:03:14.408Z,1003.49
2022-11-02T09:04:13.852Z,1003.47
2022-11-02T09:05:14.035Z,1003.51
2022-11-02T09:06:13.219Z,1003.48
2022-11-02T09:07:13.140Z,1003.54
2022-11-02T09:08:13.300Z,1003.54
2022-11-02T09:09:13.360Z,1003.49
2022-11-02T09:10:13.217Z,1003.58
2022-11-02T09:11:13.091Z,1003.52
2022-11-02T09:12:12.972Z,1003.48
2022-11-02T09:13:13.105Z,1003.64
2022-11-02T09:14:13.340Z,1003.69
2022-11-02T09:15:13.291Z,1003.63
2022-11-02T09:16:13.233Z,1003.69
2022-11-02T09:17:13.158Z,1003.70
2022-11-02T09:18:13.116Z,1003.63
2022-11-02T09:19:12.928Z,1003.73
2022-11-02T09:20:13.281Z,1003.67
2022-11-02T09:21:13.437Z,1003.69
2022-11-02T09:22:13.740Z,1003.55
2022-11-02T09:23:13.902Z,1003.67
2022-11-02T09:24:12.819Z,1003.74
2022-11-02T09:25:13.803Z,1003.70
2022-11-02T09:26:13.887Z,1003.82
2022-11-02T09:27:13.992Z,1003.83
2022-11-02T09:28:13.268Z,1003.82
2022-11-02T09:29:13.802Z,1003.83
2022-11-02T09:30:13.732Z,1003.87
2022-11-02T09:31:13.663Z,1003.85
2022-11-02T09:32:18.809Z,1003.88
2022-11-02T09:33:13.931Z,1003.80
2022-11-02T09:34:14.042Z,1003.75
2022-11-02T09:35:13.951Z,1003.81
2022-11-02T09:36:13.231Z,1003.85
2022-11-02T09:37:13.047Z,1003.93
2022-11-02T09:38:12.924Z,1003.87
2022-11-02T09:39:12.846Z,1003.82
2022-11-02T09:40:13.986Z,1003.88
2022-11-02T09:41:16.106Z,1003.94
2022-11-02T09:42:19.514Z,1003.98
2022-11-02T09:43:13.558Z,1003.80
2022-11-02T09:44:13.958Z,1003.98
2022-11-02T09:45:12.909Z,1004.08
2022-11-02T09:46:13.031Z,1004.03
2022-11-02T09:48:10.565Z,1004.00
2022-11-02T09:48:19.675Z,1003.98
2022-11-02T09:49:13.261Z,1004.03
2022-11-02T09:50:13.430Z,1004.01
2022-11-02T09:51:13.721Z,1004.07
2022-11-02T09:52:14.485Z,1004.05
2022-11-02T09:53:13.649Z,1004.07
2022-11-02T09:54:17.297Z,1004.12
2022-11-02T09:55:13.388Z,1004.04
2022-11-02T09:56:13.612Z,1004.22
2022-11-02T09:57:13.581Z,1004.08
2022-11-02T09:58:13.986Z,1004.14
2022-11-02T09:59:13.230Z,1004.09
2022-11-02T10:00:13.440Z,1004.14
2022-11-02T10:01:13.515Z,1004.06
2022-11-02T10:02:13.753Z,1004.04
2022-11-02T10:03:13.792Z,1004.16
2022-11-02T10:04:13.792Z,1004.02
2022-11-02T10:05:13.750Z,1004.10
2022-11-02T10:06:14.036Z,1004.19
2022-11-02T10:07:12.901Z,1004.11
2022-11-02T10:08:12.787Z,1004.15
2022-11-02T10:09:19.126Z,1004.10
2022-11-02T10:10:13.266Z,1004.20
2022-11-02T10:11:13.594Z,1004.26
2022-11-02T10:12:13.565Z,1004.13
2022-11-02T10:13:13.466Z,1004.10
2022-11-02T10:14:13.858Z,1004.07
2022-11-02T10:15:13.962Z,1004.17
2022-11-02T10:16:12.961Z,1004.07
2022-11-02T10:17:12.954Z,1004.04
2022-11-02T10:18:12.884Z,1004.12
2022-11-02T10:19:32.969Z,1004.11
2022-11-02T10:20:12.973Z,1004.17
2022-11-02T10:21:12.927Z,1004.16
2022-11-02T10:22:13.311Z,1004.12
2022-11-02T10:23:13.366Z,1004.18
2022-11-02T10:24:13.234Z,1004.21
2022-11-02T10:25:13.201Z,1004.20
2022-11-02T10:26:13.214Z,1004.17
2022-11-02T10:27:14.136Z,1004.11
2022-11-02T10:28:13.409Z,1004.14
2022-11-02T10:29:13.614Z,1004.10
2022-11-02T10:30:13.533Z,1004.21
2022-11-02T10:31:15.643Z,1004.18
2022-11-02T10:32:17.995Z,1004.10
2022-11-02T10:33:13.060Z,1004.18
2022-11-02T10:34:13.150Z,1004.19
2022-11-02T10:35:31.579Z,1004.27
2022-11-02T10:36:18.844Z,1004.29
2022-11-02T10:37:13.500Z,1004.18
2022-11-02T10:38:19.035Z,1004.19
2022-11-02T10:40:01.236Z,1004.12
2022-11-02T10:40:13.433Z,1004.19
2022-11-02T10:41:13.576Z,1004.15
2022-11-02T10:42:13.484Z,1004.15
2022-11-02T10:43:13.363Z,1004.15
2022-11-02T10:44:13.289Z,1004.11
2022-11-02T10:45:13.366Z,1004.03
2022-11-02T10:46:39.189Z,1004.18
2022-11-02T10:47:13.168Z,1004.16
2022-11-02T10:48:13.508Z,1004.26
2022-11-02T10:49:22.406Z,1004.22
2022-11-02T10:50:13.801Z,1004.28
2022-11-02T10:51:14.023Z,1004.27
2022-11-02T10:52:13.118Z,1004.20
2022-11-02T10:53:39.607Z,1004.30
2022-11-02T10:54:12.865Z,1004.21
2022-11-02T10:56:13.156Z,1004.37
2022-11-02T10:57:26.813Z,1004.36
2022-11-02T10:58:13.923Z,1004.38
2022-11-02T10:59:13.525Z,1004.31
2022-11-02T11:00:13.585Z,1004.26
2022-11-02T11:01:13.904Z,1004.38
2022-11-02T11:03:17.178Z,1004.36
2022-11-02T11:04:18.152Z,1004.36
2022-11-02T11:05:13.078Z,1004.33
2022-11-02T11:06:13.043Z,1004.28
2022-11-02T11:07:39.612Z,1004.28
2022-11-02T11:08:13.534Z,1004.12
2022-11-02T11:09:13.496Z,1004.15
2022-11-02T11:10:13.437Z,1004.33
2022-11-02T11:11:13.369Z,1004.34
2022-11-02T11:12:13.271Z,1004.34
2022-11-02T11:16:20.629Z,1004.41
2022-11-02T11:19:40.968Z,1004.48
2022-11-02T11:20:13.429Z,1004.46
2022-11-02T11:21:13.413Z,1004.46
2022-11-02T11:22:13.874Z,1004.41
2022-11-02T11:23:13.756Z,1004.47
2022-11-02T11:24:13.753Z,1004.44
2022-11-02T11:25:13.738Z,1004.56
2022-11-02T11:26:13.677Z,1004.60
2022-11-02T11:27:13.688Z,1004.54
2022-11-02T11:28:13.694Z,1004.52
2022-11-02T11:29:13.692Z,1004.58
2022-11-02T11:30:13.970Z,1004.49
2022-11-02T11:31:13.109Z,1004.58
2022-11-02T11:32:13.042Z,1004.62
2022-11-02T11:33:14.276Z,1004.60
2022-11-02T11:34:13.180Z,1004.53
2022-11-02T11:35:12.984Z,1004.57
2022-11-02T11:36:12.953Z,1004.55
2022-11-02T11:37:12.830Z,1004.59
2022-11-02T11:38:13.722Z,1004.56
2022-11-02T11:39:13.664Z,1004.67
2022-11-02T11:40:14.675Z,1004.63
2022-11-02T11:41:13.861Z,1004.51
2022-11-02T11:42:13.790Z,1004.59
2022-11-02T11:43:13.741Z,1004.61
2022-11-02T11:44:13.660Z,1004.57
2022-11-02T11:45:13.862Z,1004.63
2022-11-02T11:46:14.280Z,1004.62
2022-11-02T11:47:13.386Z,1004.49
2022-11-02T11:48:13.523Z,1004.54
2022-11-02T11:49:13.564Z,1004.48
2022-11-02T11:50:22.906Z,1004.55
2022-11-02T11:51:12.955Z,1004.53
2022-11-02T11:52:13.106Z,1004.59
2022-11-02T11:53:13.247Z,1004.54
2022-11-02T11:54:13.142Z,1004.58
2022-11-02T11:55:13.241Z,1004.59
2022-11-02T11:56:13.518Z,1004.54
2022-11-02T11:57:13.770Z,1004.55
2022-11-02T11:58:13.810Z,1004.58
2022-11-02T11:59:14.210Z,1004.64
2022-11-02T12:00:13.287Z,1004.69
2022-11-02T12:01:13.253Z,1004.58
2022-11-02T12:02:13.490Z,1004.56
2022-11-02T12:03:13.880Z,1004.52
2022-11-02T12:04:12.784Z,1004.59
2022-11-02T12:05:13.947Z,1004.60
2022-11-02T12:06:13.135Z,1004.62
2022-11-02T12:07:13.161Z,1004.65
2022-11-02T12:08:13.276Z,1004.51
2022-11-02T12:09:13.117Z,1004.47
2022-11-02T12:10:13.026Z,1004.57
2022-11-02T12:12:12.854Z,1004.48
2022-11-02T12:13:18.758Z,1004.53
2022-11-02T12:14:13.960Z,1004.49
2022-11-02T12:15:44.941Z,1004.39
2022-11-02T12:16:12.883Z,1004.48
2022-11-02T12:17:14.047Z,1004.52
2022-11-02T12:18:13.259Z,1004.45
2022-11-02T12:19:13.314Z,1004.54
2022-11-02T12:20:13.563Z,1004.46
2022-11-02T12:21:14.034Z,1004.49
2022-11-02T12:22:13.083Z,1004.36
2022-11-02T12:23:13.162Z,1004.48
2022-11-02T12:24:13.418Z,1004.34